Time;durP1;ratioP1;P1;durP2;ratioP2;P2;SDS_P1;SDS_P2;PMS_P1;PMS_P2;Temp;Humidity;BMP_temperature;BMP_pressure;BME280_temperature;BME280_humidity;BME280_pressure;Samples;Min_cycle;Max_cycle;Signal;HPM_P1;HPM_P2
2021/03/09 00:00:44;;;;;;;87.10;28.63;;;;;;;-4.40;64.92;99423.19;2178718;81;21264;-79
2021/03/09 00:03:47;;;;;;;94.40;30.60;;;;;;;-4.52;64.77;99425.66;2178238;82;21153;-78
2021/03/09 00:06:48;;;;;;;89.20;30.07;;;;;;;-4.57;64.95;99423.13;2177811;81;21121;-78
2021/03/09 00:09:49;;;;;;;92.80;30.97;;;;;;;-4.56;65.04;99424.52;2178357;81;21424;-79
2021/03/09 00:12:50;;;;;;;89.93;30.90;;;;;;;-4.55;65.19;99422.48;2178493;81;21284;-79
2021/03/09 00:15:52;;;;;;;91.57;30.07;;;;;;;-4.57;64.96;99416.75;2178597;81;21284;-78
2021/03/09 00:18:53;;;;;;;91.17;30.53;;;;;;;-4.60;64.91;99422.49;2178358;81;21396;-79
2021/03/09 00:21:54;;;;;;;90.07;29.93;;;;;;;-4.66;64.99;99422.01;2178203;81;21125;-78
2021/03/09 00:24:55;;;;;;;87.90;28.03;;;;;;;-4.69;65.07;99424.31;2178340;81;21212;-79
2021/03/09 00:27:56;;;;;;;94.00;30.97;;;;;;;-4.73;65.00;99425.22;2178206;81;21380;-78
2021/03/09 00:30:57;;;;;;;96.60;31.67;;;;;;;-4.78;64.91;99421.41;2177990;81;21138;-79
2021/03/09 00:33:58;;;;;;;90.70;30.33;;;;;;;-4.81;65.08;99422.94;2175314;81;21332;-78
2021/03/09 00:36:59;;;;;;;89.20;29.90;;;;;;;-4.84;65.03;99420.53;2161043;82;21249;-78
2021/03/09 00:40:00;;;;;;;102.73;32.70;;;;;;;-4.89;65.02;99426.53;2160746;82;21754;-77
2021/03/09 00:43:01;;;;;;;89.33;31.87;;;;;;;-4.85;65.45;99428.94;2160336;82;21110;-77
2021/03/09 00:46:02;;;;;;;97.53;33.23;;;;;;;-4.84;65.17;99425.62;2160566;82;21276;-77
2021/03/09 00:49:03;;;;;;;88.67;31.90;;;;;;;-4.82;65.09;99424.09;2160587;82;21147;-77
2021/03/09 00:52:04;;;;;;;97.13;32.90;;;;;;;-4.81;65.11;99420.40;2161435;82;21166;-77
2021/03/09 00:55:05;;;;;;;91.10;32.40;;;;;;;-4.79;65.08;99424.72;2160810;82;21122;-78
2021/03/09 00:58:06;;;;;;;95.60;33.83;;;;;;;-4.83;64.80;99423.59;2160298;82;21260;-78
2021/03/09 01:01:07;;;;;;;115.20;36.27;;;;;;;-4.91;64.55;99419.15;2160931;82;21119;-78
2021/03/09 01:04:08;;;;;;;94.83;35.87;;;;;;;-4.98;64.66;99425.78;2160276;82;21242;-77
2021/03/09 01:07:09;;;;;;;134.03;44.67;;;;;;;-5.00;64.77;99426.05;2159845;82;21261;-77
2021/03/09 01:10:11;;;;;;;134.47;42.83;;;;;;;-4.95;64.90;99420.94;2159761;82;21246;-80
2021/03/09 01:13:12;;;;;;;119.17;40.80;;;;;;;-4.94;64.76;99422.72;2160073;82;21310;-77
2021/03/09 01:16:13;;;;;;;115.93;40.67;;;;;;;-5.00;64.68;99420.06;2159423;82;21119;-77
2021/03/09 01:19:14;;;;;;;142.17;48.13;;;;;;;-5.03;64.72;99417.27;2159806;82;21111;-77
2021/03/09 01:22:15;;;;;;;110.57;37.80;;;;;;;-5.08;64.73;99418.17;2159835;82;21142;-78
2021/03/09 01:25:16;;;;;;;116.07;40.43;;;;;;;-5.09;64.62;99411.30;2160059;82;21416;-79
2021/03/09 01:28:17;;;;;;;132.40;46.50;;;;;;;-5.12;64.67;99411.42;2160511;82;21265;-77
2021/03/09 01:31:18;;;;;;;144.23;49.63;;;;;;;-5.22;64.37;99403.01;2160813;82;21134;-79
2021/03/09 01:34:19;;;;;;;171.57;55.20;;;;;;;-5.30;64.50;99405.31;2163996;82;21713;-78
2021/03/09 01:37:20;;;;;;;178.10;60.93;;;;;;;-5.27;64.76;99404.29;2178615;81;21109;-77
2021/03/09 01:40:27;;;;;;;618.40;104.97;;;;;;;-5.27;64.93;99404.29;2178678;81;21134;-78
2021/03/09 01:43:28;;;;;;;366.00;79.60;;;;;;;-5.24;65.14;99402.38;2178574;81;21125;-78
2021/03/09 01:46:32;;;;;;;265.93;71.87;;;;;;;-5.20;65.18;99398.97;2178664;81;21162;-79
2021/03/09 01:49:33;;;;;;;237.10;64.17;;;;;;;-5.17;64.86;99394.13;2178476;81;21090;-77
2021/03/09 01:52:34;;;;;;;235.40;63.67;;;;;;;-5.18;64.40;99392.73;2178240;81;21185;-77
2021/03/09 01:55:37;;;;;;;218.70;63.47;;;;;;;-5.16;64.44;99397.56;2178770;81;21145;-77
2021/03/09 01:58:38;;;;;;;138.03;46.10;;;;;;;-5.20;64.25;99400.23;2177973;81;21125;-78
2021/03/09 02:01:39;;;;;;;204.17;70.50;;;;;;;-5.26;63.84;99402.25;2178089;81;21122;-78
2021/03/09 02:04:40;;;;;;;228.97;78.50;;;;;;;-5.30;63.96;99398.06;2178814;81;21126;-78
2021/03/09 02:07:41;;;;;;;227.07;75.50;;;;;;;-5.35;64.26;99392.59;2178653;82;21098;-77
2021/03/09 02:10:42;;;;;;;234.30;75.47;;;;;;;-5.33;64.33;99399.97;2178943;81;21735;-77
2021/03/09 02:13:46;;;;;;;232.43;76.63;;;;;;;-5.30;64.28;99404.04;2178752;81;21181;-78
2021/03/09 02:16:47;;;;;;;217.73;74.47;;;;;;;-5.31;64.21;99402.64;2178824;81;21424;-76
2021/03/09 02:19:51;;;;;;;234.07;78.07;;;;;;;-5.34;64.26;99396.03;2178855;81;21403;-77
2021/03/09 02:22:52;;;;;;;217.67;74.40;;;;;;;-5.35;64.42;99393.87;2179015;81;21412;-78
2021/03/09 02:25:53;;;;;;;214.80;74.50;;;;;;;-5.36;64.25;99394.62;2178851;81;21158;-77
2021/03/09 02:28:54;;;;;;;212.90;74.90;;;;;;;-5.32;64.41;99397.94;2177891;81;21130;-78
2021/03/09 02:31:55;;;;;;;206.33;72.00;;;;;;;-5.27;64.43;99397.92;2178115;81;21463;-77
2021/03/09 02:34:56;;;;;;;200.37;71.60;;;;;;;-5.27;64.53;99397.03;2178401;81;21169;-77
2021/03/09 02:37:57;;;;;;;206.40;71.73;;;;;;;-5.31;64.23;99390.80;2178611;81;21125;-77
2021/03/09 02:40:58;;;;;;;187.40;69.10;;;;;;;-5.31;64.18;99402.25;2178514;82;21502;-77
2021/03/09 02:43:59;;;;;;;183.37;65.97;;;;;;;-5.42;64.02;99400.48;2177727;81;21126;-78
2021/03/09 02:47:00;;;;;;;193.60;63.43;;;;;;;-5.46;64.28;99395.53;2177933;81;21444;-78
2021/03/09 02:50:01;;;;;;;184.60;62.90;;;;;;;-5.47;64.59;99397.95;2177974;81;21094;-80
2021/03/09 02:53:02;;;;;;;199.87;62.17;;;;;;;-5.49;64.49;99398.20;2177652;81;21157;-79
2021/03/09 02:56:03;;;;;;;179.07;59.07;;;;;;;-5.51;64.63;99391.72;2177878;81;21135;-79
2021/03/09 02:59:04;;;;;;;432.63;72.30;;;;;;;-5.51;64.52;99395.91;2179232;81;21130;-78
2021/03/09 03:02:05;;;;;;;155.13;53.90;;;;;;;-5.54;64.42;99404.18;2178875;81;21128;-78
2021/03/09 03:08:32;;;;;;;;;;;;;;;-5.59;64.56;99408.00;2180966;81;21374;-80
2021/03/09 03:11:33;;;;;;;152.20;49.33;;;;;;;-5.56;64.94;99406.09;2178776;82;20141;-78
2021/03/09 03:14:34;;;;;;;152.07;48.23;;;;;;;-5.59;64.68;99405.45;2178435;81;21165;-79
2021/03/09 03:17:35;;;;;;;124.67;46.57;;;;;;;-5.59;64.60;99413.47;2178367;81;21757;-79
2021/03/09 03:20:36;;;;;;;263.90;52.23;;;;;;;-5.62;63.89;99411.94;2178906;81;21103;-78
2021/03/09 03:23:37;;;;;;;129.63;45.77;;;;;;;-5.67;64.18;99412.83;2178395;81;21122;-79
2021/03/09 03:26:38;;;;;;;153.40;45.50;;;;;;;-5.72;63.80;99413.20;2178544;81;21416;-77
2021/03/09 03:29:39;;;;;;;123.60;42.80;;;;;;;-5.79;63.81;99413.96;2178632;82;21126;-79
2021/03/09 03:32:40;;;;;;;102.13;39.67;;;;;;;-5.78;63.88;99409.77;2177920;82;21142;-79
2021/03/09 03:35:41;;;;;;;105.17;37.73;;;;;;;-5.82;63.94;99413.70;2170162;81;21266;-78
2021/03/09 03:38:43;;;;;;;119.27;41.33;;;;;;;-5.87;64.07;99411.16;2160444;82;21249;-78
2021/03/09 03:41:44;;;;;;;109.20;40.63;;;;;;;-5.88;64.05;99413.56;2159923;82;21444;-78
2021/03/09 03:44:45;;;;;;;116.80;41.63;;;;;;;-5.87;63.60;99414.97;2160453;82;21245;-79
2021/03/09 03:47:46;;;;;;;108.47;40.50;;;;;;;-5.89;63.33;99417.77;2160313;82;21130;-78
2021/03/09 03:50:47;;;;;;;118.30;41.37;;;;;;;-5.97;63.30;99421.72;2160188;82;21524;-78
2021/03/09 03:53:48;;;;;;;113.40;39.70;;;;;;;-6.01;63.46;99420.57;2160618;82;21438;-78
2021/03/09 03:56:49;;;;;;;157.03;41.30;;;;;;;-5.99;63.68;99418.16;2160491;82;21262;-78
2021/03/09 03:59:50;;;;;;;121.00;38.20;;;;;;;-5.99;63.94;99420.70;2160227;82;21111;-78
2021/03/09 04:02:52;;;;;;;116.47;41.87;;;;;;;-5.93;64.11;99419.95;2160219;82;21897;-78
2021/03/09 04:05:52;;;;;;;112.83;38.93;;;;;;;-5.85;64.06;99417.64;2159959;82;21245;-79
2021/03/09 04:08:54;;;;;;;119.43;42.30;;;;;;;-5.81;63.70;99425.66;2160004;82;21138;-78
2021/03/09 04:11:55;;;;;;;164.60;44.53;;;;;;;-5.83;63.41;99419.55;2159104;82;21261;-79
2021/03/09 04:14:56;;;;;;;133.53;42.73;;;;;;;-5.88;63.60;99418.66;2159941;82;21265;-79
2021/03/09 04:17:57;;;;;;;119.87;43.27;;;;;;;-5.92;63.49;99421.73;2160668;82;21277;-80
2021/03/09 04:20:58;;;;;;;139.07;47.93;;;;;;;-5.92;63.79;99425.16;2160597;82;21551;-77
2021/03/09 04:23:59;;;;;;;117.37;40.70;;;;;;;-5.85;64.04;99421.45;2160052;82;21393;-78
2021/03/09 04:27:00;;;;;;;114.23;41.97;;;;;;;-5.81;63.57;99419.30;2159432;82;21253;-78
2021/03/09 04:30:01;;;;;;;129.37;43.33;;;;;;;-5.85;63.38;99421.08;2159700;82;21547;-78
2021/03/09 04:33:02;;;;;;;137.40;46.93;;;;;;;-5.86;63.38;99414.59;2159769;82;21305;-78
2021/03/09 04:36:04;;;;;;;135.00;47.00;;;;;;;-5.91;63.31;99414.23;2168198;82;21150;-77
2021/03/09 04:39:05;;;;;;;158.00;49.60;;;;;;;-5.93;63.24;99417.41;2176319;81;21236;-79
2021/03/09 04:42:06;;;;;;;381.17;63.87;;;;;;;-5.97;63.11;99414.98;2176208;81;21428;-78
2021/03/09 04:45:07;;;;;;;160.47;51.63;;;;;;;-6.01;63.37;99412.95;2174991;81;21240;-78
2021/03/09 04:48:09;;;;;;;178.47;54.83;;;;;;;-5.99;63.42;99411.80;2173342;81;21150;-79
2021/03/09 04:51:10;;;;;;;162.63;52.93;;;;;;;-6.01;63.47;99418.03;2174496;81;21244;-77
2021/03/09 04:54:11;;;;;;;153.67;52.03;;;;;;;-5.99;63.18;99420.32;2174479;81;21149;-79
2021/03/09 04:57:12;;;;;;;169.83;54.53;;;;;;;-5.96;63.38;99418.42;2174135;81;21268;-78
2021/03/09 05:00:14;;;;;;;168.70;52.40;;;;;;;-5.90;63.44;99416.02;2174106;81;21251;-79
2021/03/09 05:03:15;;;;;;;148.63;51.63;;;;;;;-5.83;63.16;99424.63;2173659;81;21264;-78
2021/03/09 05:06:16;;;;;;;168.03;54.43;;;;;;;-5.79;63.07;99418.16;2173491;81;21249;-77
2021/03/09 05:09:18;;;;;;;164.57;54.47;;;;;;;-5.69;63.44;99419.81;2174136;81;21610;-78
2021/03/09 05:12:19;;;;;;;164.23;55.97;;;;;;;-5.56;63.41;99420.08;2174065;81;21300;-79
2021/03/09 05:15:20;;;;;;;153.67;54.90;;;;;;;-5.50;63.22;99427.84;2175250;81;21114;-79
2021/03/09 05:18:21;;;;;;;205.43;56.33;;;;;;;-5.44;63.39;99426.19;2175472;81;21603;-79
2021/03/09 05:21:22;;;;;;;162.57;54.30;;;;;;;-5.38;63.53;99422.88;2174893;81;21605;-79
2021/03/09 05:24:23;;;;;;;329.73;76.23;;;;;;;-5.30;63.66;99421.84;2174836;82;21129;-79
2021/03/09 05:27:27;;;;;;;220.23;70.77;;;;;;;-5.18;63.95;99426.70;2174809;81;21144;-78
2021/03/09 05:30:28;;;;;;;419.57;74.47;;;;;;;-5.07;63.93;99426.70;2173783;82;21180;-78
2021/03/09 05:33:29;;;;;;;234.27;62.53;;;;;;;-4.96;64.19;99429.73;2174580;81;21291;-78
2021/03/09 05:36:31;;;;;;;309.33;73.03;;;;;;;-4.82;64.34;99429.19;2174518;81;21292;-78
2021/03/09 05:39:32;;;;;;;213.93;66.63;;;;;;;-4.62;64.91;99427.85;2175513;81;21244;-78
2021/03/09 05:42:34;;;;;;;184.93;64.20;;;;;;;-4.49;64.72;99426.78;2174720;81;21256;-78
2021/03/09 05:45:35;;;;;;;263.30;63.50;;;;;;;-4.36;64.59;99429.03;2173816;81;21125;-78
2021/03/09 05:48:37;;;;;;;347.03;72.57;;;;;;;-4.20;64.84;99430.77;2174871;81;21261;-77
2021/03/09 05:51:38;;;;;;;273.30;65.30;;;;;;;-4.11;64.98;99426.39;2175099;81;21211;-77
2021/03/09 05:54:39;;;;;;;628.87;104.50;;;;;;;-3.95;65.02;99434.45;2175330;81;21281;-77
2021/03/09 05:57:40;;;;;;;506.83;102.90;;;;;;;-3.78;65.03;99438.69;2175008;81;21638;-78
2021/03/09 06:00:41;;;;;;;265.50;73.70;;;;;;;-3.59;64.91;99431.67;2174696;81;21244;-78
2021/03/09 06:03:42;;;;;;;218.20;72.83;;;;;;;-3.47;64.92;99421.11;2175603;81;21638;-79
2021/03/09 06:06:43;;;;;;;238.10;70.13;;;;;;;-3.34;64.84;99422.57;2175049;81;21246;-78
2021/03/09 06:09:44;;;;;;;894.93;130.70;;;;;;;-3.15;64.69;99429.94;2174993;81;21271;-78
2021/03/09 06:12:45;;;;;;;203.87;68.60;;;;;;;-2.97;64.50;99440.23;2174933;81;21277;-79
2021/03/09 06:15:46;;;;;;;227.17;68.00;;;;;;;-2.87;64.24;99441.80;2175214;81;21260;-80
2021/03/09 06:18:48;;;;;;;1325.00;167.67;;;;;;;-2.67;64.20;99441.97;2175191;82;21264;-78
2021/03/09 06:25:03;;;;;;;211.23;65.03;;;;;;;-2.34;63.94;99444.44;2208507;79;22983;-81
2021/03/09 06:28:04;;;;;;;174.97;59.97;;;;;;;-2.30;63.67;99449.38;2176140;82;21264;-80
2021/03/09 06:31:05;;;;;;;185.70;62.07;;;;;;;-2.23;63.87;99449.04;2175914;82;21122;-81
2021/03/09 06:34:07;;;;;;;169.67;57.33;;;;;;;-2.07;63.97;99452.29;2175275;82;21248;-80
2021/03/09 06:37:08;;;;;;;156.40;62.17;;;;;;;-1.88;63.78;99453.19;2175664;82;21260;-80
2021/03/09 06:40:10;;;;;;;162.63;62.27;;;;;;;-1.71;63.76;99466.41;2175271;81;21130;-81
2021/03/09 06:43:11;;;;;;;191.40;61.67;;;;;;;-1.56;63.36;99461.46;2175752;82;21945;-78
2021/03/09 06:46:12;;;;;;;165.97;64.97;;;;;;;-1.43;63.47;99454.22;2174837;82;21432;-78
2021/03/09 06:49:14;;;;;;;230.10;71.37;;;;;;;-1.30;63.50;99461.56;2175332;82;21199;-78
2021/03/09 06:52:15;;;;;;;206.00;68.90;;;;;;;-1.22;63.34;99465.92;2175173;82;21126;-79
2021/03/09 06:55:16;;;;;;;172.37;66.97;;;;;;;-1.14;63.45;99467.33;2174996;81;21134;-76
2021/03/09 06:58:17;;;;;;;225.27;75.90;;;;;;;-1.02;63.39;99463.02;2172754;82;21275;-79
2021/03/09 07:01:18;;;;;;;144.57;64.90;;;;;;;-0.87;63.29;99468.28;2173585;82;21308;-77
2021/03/09 07:04:19;;;;;;;161.43;66.90;;;;;;;-0.73;62.84;99469.22;2173667;82;21288;-79
2021/03/09 07:07:21;;;;;;;149.87;63.10;;;;;;;-0.61;62.88;99472.98;2175794;82;21601;-79
2021/03/09 07:10:25;;;;;;;307.77;74.57;;;;;;;-0.50;62.36;99471.61;2175448;82;21123;-79
2021/03/09 07:13:26;;;;;;;203.43;68.90;;;;;;;-0.38;62.38;99477.53;2175618;82;21262;-80
2021/03/09 07:16:27;;;;;;;533.10;83.80;;;;;;;-0.27;62.34;99466.67;2173965;82;21138;-79
2021/03/09 07:19:28;;;;;;;162.47;62.40;;;;;;;-0.19;62.30;99468.05;2173601;82;21252;-80
2021/03/09 07:22:29;;;;;;;137.93;57.67;;;;;;;-0.06;62.34;99473.17;2175948;81;21165;-79
2021/03/09 07:25:30;;;;;;;208.07;66.10;;;;;;;0.07;62.30;99478.71;2175652;81;21157;-80
2021/03/09 07:28:31;;;;;;;204.73;54.27;;;;;;;0.13;62.17;99482.05;2174952;81;21134;-79
2021/03/09 07:31:32;;;;;;;92.87;40.23;;;;;;;0.22;62.09;99474.53;2175843;81;21284;-80
2021/03/09 07:34:33;;;;;;;92.37;36.83;;;;;;;0.30;61.70;99480.14;2176447;81;21146;-81
2021/03/09 07:37:34;;;;;;;78.93;32.00;;;;;;;0.24;61.89;99482.33;2175969;81;21249;-80
2021/03/09 07:40:35;;;;;;;462.43;50.43;;;;;;;0.29;62.00;99484.39;2176352;81;21117;-80
2021/03/09 07:43:36;;;;;;;64.27;25.97;;;;;;;0.42;61.87;99477.44;2176060;82;21157;-79
2021/03/09 07:46:37;;;;;;;53.70;22.53;;;;;;;0.67;61.71;99479.42;2176139;81;21487;-80
2021/03/09 07:49:38;;;;;;;68.30;23.63;;;;;;;0.97;60.99;99476.55;2176045;81;21265;-79
2021/03/09 07:52:40;;;;;;;88.83;24.70;;;;;;;1.17;60.82;99476.05;2176516;81;21125;-80
2021/03/09 07:55:41;;;;;;;74.60;20.33;;;;;;;1.28;60.26;99480.13;2176296;81;21273;-80
2021/03/09 07:58:42;;;;;;;37.63;19.20;;;;;;;1.34;59.51;99475.73;2176304;82;21252;-80
2021/03/09 08:01:43;;;;;;;34.27;15.63;;;;;;;1.37;59.45;99474.63;2176419;81;21252;-78
2021/03/09 08:04:45;;;;;;;37.33;17.33;;;;;;;1.45;58.62;99478.52;2174867;81;21331;-79
2021/03/09 08:07:46;;;;;;;30.77;16.77;;;;;;;1.49;58.17;99482.16;2175137;82;21582;-80
2021/03/09 08:10:47;;;;;;;901.20;73.17;;;;;;;1.58;58.99;99480.11;2175339;81;21288;-79
2021/03/09 08:13:48;;;;;;;124.30;21.20;;;;;;;1.73;58.19;99481.38;2175110;82;21519;-79
2021/03/09 08:16:50;;;;;;;36.13;17.80;;;;;;;1.82;57.70;99475.50;2174439;81;21293;-79
2021/03/09 08:19:51;;;;;;;41.00;16.50;;;;;;;2.04;57.62;99471.14;2174587;81;21537;-79
2021/03/09 08:22:52;;;;;;;30.17;14.80;;;;;;;2.22;57.44;99476.01;2173193;81;21493;-80
2021/03/09 08:25:53;;;;;;;52.23;16.73;;;;;;;2.28;55.96;99474.17;2157450;82;21257;-79
2021/03/09 08:28:54;;;;;;;37.37;17.27;;;;;;;2.29;55.18;99463.95;2157648;82;21135;-78
2021/03/09 08:31:56;;;;;;;34.30;16.63;;;;;;;2.33;55.36;99465.00;2157099;82;21635;-79
2021/03/09 08:34:59;;;;;;;36.87;17.30;;;;;;;2.41;54.54;99458.56;2156286;82;21268;-78
2021/03/09 08:38:00;;;;;;;33.93;16.03;;;;;;;2.48;54.51;99462.84;2155426;82;21114;-78
2021/03/09 08:41:01;;;;;;;167.40;23.13;;;;;;;2.62;53.76;99456.27;2155926;82;21504;-80
2021/03/09 08:44:02;;;;;;;38.87;16.83;;;;;;;2.69;53.51;99453.21;2156659;82;21308;-80
2021/03/09 08:47:03;;;;;;;27.53;13.67;;;;;;;2.81;52.49;99451.27;2158300;82;21087;-79
2021/03/09 08:50:04;;;;;;;30.00;12.67;;;;;;;2.91;52.75;99448.76;2156958;82;21261;-79
2021/03/09 08:53:05;;;;;;;31.20;14.83;;;;;;;2.85;51.62;99444.17;2156249;82;21153;-79
2021/03/09 08:56:06;;;;;;;26.23;13.67;;;;;;;2.86;52.55;99444.66;2157107;82;21278;-78
2021/03/09 08:59:07;;;;;;;71.73;14.67;;;;;;;3.19;51.80;99445.48;2156925;82;22040;-77
2021/03/09 09:02:09;;;;;;;22.80;12.10;;;;;;;3.25;50.49;99437.16;2153464;82;21253;-77
2021/03/09 09:05:10;;;;;;;29.93;11.20;;;;;;;3.26;50.83;99442.80;2156302;82;21119;-78
2021/03/09 09:08:11;;;;;;;37.50;12.47;;;;;;;3.30;50.73;99439.16;2156957;82;21310;-78
2021/03/09 09:11:13;;;;;;;19.37;10.23;;;;;;;3.41;50.19;99438.00;2155867;82;21253;-78
2021/03/09 09:14:14;;;;;;;20.27;9.07;;;;;;;3.61;48.88;99441.59;2156980;82;21146;-78
2021/03/09 09:17:15;;;;;;;19.00;9.00;;;;;;;3.80;48.97;99435.20;2155263;82;21830;-77
2021/03/09 09:20:16;;;;;;;20.00;10.17;;;;;;;3.89;47.80;99435.16;2155586;82;21261;-78
2021/03/09 09:23:18;;;;;;;17.80;8.27;;;;;;;3.99;47.62;99432.20;2155680;82;21606;-77
2021/03/09 09:26:19;;;;;;;17.33;8.63;;;;;;;3.89;47.15;99422.25;2155576;82;21142;-78
2021/03/09 09:29:20;;;;;;;37.97;9.80;;;;;;;3.90;47.31;99428.78;2155873;82;21119;-76
2021/03/09 09:32:21;;;;;;;22.90;8.87;;;;;;;3.97;47.19;99423.09;2154555;82;21709;-78
2021/03/09 09:35:22;;;;;;;13.17;7.10;;;;;;;4.14;46.91;99420.00;2154375;82;21146;-77
2021/03/09 09:38:23;;;;;;;17.13;7.50;;;;;;;4.19;45.36;99419.80;2155267;82;21135;-77
2021/03/09 09:41:25;;;;;;;17.30;7.80;;;;;;;4.23;45.35;99420.83;2155216;82;21595;-76
2021/03/09 09:44:26;;;;;;;14.53;7.83;;;;;;;4.38;45.05;99419.86;2155984;82;21284;-77
2021/03/09 09:47:27;;;;;;;12.57;7.00;;;;;;;4.31;45.30;99417.77;2156024;82;21142;-76
2021/03/09 09:50:30;;;;;;;15.20;7.17;;;;;;;4.20;44.67;99418.98;2155401;82;21409;-77
2021/03/09 09:53:31;;;;;;;17.93;6.50;;;;;;;4.12;44.67;99417.34;2155425;82;21269;-77
2021/03/09 09:56:32;;;;;;;29.13;6.87;;;;;;;4.47;44.47;99420.67;2155826;82;21265;-77
2021/03/09 09:59:36;;;;;;;18.20;7.10;;;;;;;4.67;44.20;99409.92;2155451;81;21269;-77
2021/03/09 10:02:37;;;;;;;15.87;7.13;;;;;;;4.74;43.73;99411.55;2155615;82;21556;-77
2021/03/09 10:05:38;;;;;;;12.10;6.53;;;;;;;4.70;43.54;99410.06;2155913;82;21272;-77
2021/03/09 10:08:39;;;;;;;11.30;7.03;;;;;;;4.66;42.51;99419.39;2154597;82;21115;-77
2021/03/09 10:11:40;;;;;;;13.90;6.80;;;;;;;4.60;42.63;99417.82;2155453;82;21114;-77
2021/03/09 10:14:43;;;;;;;13.47;7.23;;;;;;;4.55;42.33;99417.14;2156206;82;21285;-78
2021/03/09 10:17:45;;;;;;;13.80;6.80;;;;;;;4.47;41.98;99417.69;2157509;82;21147;-78
2021/03/09 10:20:46;;;;;;;13.47;6.93;;;;;;;4.39;41.77;99412.98;2156636;82;21281;-77
2021/03/09 10:23:47;;;;;;;12.67;6.20;;;;;;;4.26;42.07;99411.52;2156604;81;21138;-76
2021/03/09 10:26:48;;;;;;;14.30;5.40;;;;;;;4.34;42.49;99413.19;2166634;82;21265;-77
2021/03/09 10:29:49;;;;;;;50.50;8.23;;;;;;;4.52;41.53;99406.25;2166636;82;21139;-77
2021/03/09 10:32:50;;;;;;;7.30;4.30;;;;;;;4.61;41.01;99404.48;2165646;82;21277;-78
2021/03/09 10:35:51;;;;;;;8.27;5.60;;;;;;;4.70;40.33;99399.30;2166366;82;21288;-77
2021/03/09 10:38:53;;;;;;;19.53;5.77;;;;;;;4.58;39.85;99410.41;2166360;82;21149;-78
2021/03/09 10:41:55;;;;;;;35.73;7.77;;;;;;;4.60;40.17;99401.42;2166192;82;22070;-78
2021/03/09 10:44:57;;;;;;;23.73;6.30;;;;;;;4.70;40.41;99401.89;2167070;82;21158;-77
2021/03/09 10:47:59;;;;;;;18.37;4.37;;;;;;;4.79;40.40;99409.16;2166947;82;21102;-77
2021/03/09 10:51:00;;;;;;;126.33;10.23;;;;;;;4.87;39.61;99400.45;2167129;82;21951;-77
2021/03/09 10:54:01;;;;;;;7.03;3.83;;;;;;;4.92;38.80;99402.82;2167211;82;21495;-77
2021/03/09 10:57:02;;;;;;;7.27;2.83;;;;;;;4.91;37.59;99398.47;2167465;82;21400;-77
2021/03/09 11:00:05;;;;;;;6.67;2.90;;;;;;;4.71;37.22;99395.91;2166714;82;21085;-76
2021/03/09 11:03:06;;;;;;;14.57;3.77;;;;;;;4.66;37.65;99397.41;2165757;82;21597;-77
2021/03/09 11:06:07;;;;;;;40.20;5.97;;;;;;;4.78;38.24;99399.23;2166718;82;21257;-77
2021/03/09 11:09:09;;;;;;;6.37;3.40;;;;;;;4.90;38.01;99400.58;2166359;82;21118;-79
2021/03/09 11:12:10;;;;;;;6.93;3.63;;;;;;;4.89;37.72;99397.11;2167425;82;21590;-78
2021/03/09 11:15:11;;;;;;;7.43;3.77;;;;;;;5.05;38.01;99382.70;2167669;82;21253;-77
2021/03/09 11:18:12;;;;;;;20.07;4.30;;;;;;;5.29;37.50;99385.46;2167097;82;22031;-77
2021/03/09 11:21:13;;;;;;;7.47;3.70;;;;;;;5.48;37.30;99387.50;2167175;82;21252;-77
2021/03/09 11:24:14;;;;;;;7.93;4.20;;;;;;;5.51;36.86;99380.74;2165384;82;21595;-76
2021/03/09 11:27:15;;;;;;;36.73;4.23;;;;;;;5.52;37.36;99382.51;2157839;82;21127;-77
2021/03/09 11:30:17;;;;;;;160.10;12.83;;;;;;;5.71;36.45;99375.94;2157449;82;21272;-77
2021/03/09 11:36:56;;;;;;;7.07;3.80;;;;;;;5.80;35.43;99370.65;2158825;82;21498;-78
2021/03/09 11:39:57;;;;;;;8.10;3.70;;;;;;;5.67;35.54;99359.81;2156372;82;21285;-77
2021/03/09 11:42:58;;;;;;;53.23;5.33;;;;;;;5.66;34.62;99354.57;2156663;82;22099;-78
2021/03/09 11:45:59;;;;;;;6.00;3.10;;;;;;;5.32;32.29;99360.11;2157217;82;21134;-79
2021/03/09 11:49:00;;;;;;;4.60;3.30;;;;;;;5.32;34.10;99358.81;2157112;82;21277;-79
2021/03/09 11:52:01;;;;;;;4.83;2.80;;;;;;;5.26;33.75;99359.86;2156356;82;21264;-77
2021/03/09 11:55:02;;;;;;;8.57;3.70;;;;;;;5.17;33.82;99357.75;2156227;82;21281;-76
2021/03/09 11:58:03;;;;;;;5.40;3.70;;;;;;;5.20;34.03;99355.70;2156582;81;21100;-77
2021/03/09 12:01:04;;;;;;;14.07;3.87;;;;;;;5.27;34.11;99352.16;2156642;82;21091;-77
2021/03/09 12:04:05;;;;;;;9.10;3.23;;;;;;;5.43;34.40;99347.19;2156367;82;21638;-77
2021/03/09 12:07:06;;;;;;;23.83;4.20;;;;;;;5.57;34.13;99346.03;2156782;82;21264;-77
2021/03/09 12:10:10;;;;;;;38.40;4.67;;;;;;;5.56;34.14;99337.78;2157118;82;21121;-77
2021/03/09 12:13:11;;;;;;;49.33;5.63;;;;;;;5.61;34.19;99328.48;2157656;82;21273;-76
2021/03/09 12:16:12;;;;;;;46.97;6.27;;;;;;;5.58;34.06;99330.96;2157344;82;21261;-77
2021/03/09 12:19:13;;;;;;;8.40;4.10;;;;;;;5.57;34.74;99322.72;2157825;82;21464;-75
2021/03/09 12:22:15;;;;;;;23.20;5.07;;;;;;;5.59;34.21;99320.19;2156910;81;21216;-75
2021/03/09 12:25:16;;;;;;;12.80;4.73;;;;;;;5.59;34.84;99323.66;2159972;82;21296;-76
2021/03/09 12:28:17;;;;;;;19.87;5.10;;;;;;;5.63;34.60;99315.60;2164726;81;21469;-76
2021/03/09 12:31:18;;;;;;;15.93;4.73;;;;;;;5.62;34.51;99317.72;2173771;81;21284;-77
2021/03/09 12:34:19;;;;;;;22.43;4.77;;;;;;;5.63;34.19;99316.89;2173321;81;21244;-77
2021/03/09 12:37:20;;;;;;;7.27;4.00;;;;;;;5.73;34.04;99309.95;2173538;81;21269;-77
2021/03/09 12:40:21;;;;;;;14.43;4.40;;;;;;;5.76;33.16;99313.54;2173799;81;21192;-77
2021/03/09 12:43:22;;;;;;;339.40;18.40;;;;;;;5.76;33.14;99309.66;2172822;81;21162;-77
2021/03/09 12:46:24;;;;;;;7.37;3.70;;;;;;;5.86;32.88;99313.48;2173564;81;21272;-79
2021/03/09 12:49:25;;;;;;;7.63;4.10;;;;;;;5.81;32.72;99308.95;2174220;82;21149;-79
2021/03/09 12:52:26;;;;;;;17.90;5.10;;;;;;;5.78;32.90;99311.42;2173075;81;21219;-80
2021/03/09 12:55:27;;;;;;;8.27;4.93;;;;;;;5.66;32.50;99299.77;2175352;81;21137;-79
2021/03/09 12:58:30;;;;;;;6.47;4.40;;;;;;;5.47;33.02;99304.17;2173373;81;21529;-79
2021/03/09 13:01:31;;;;;;;5.50;3.80;;;;;;;5.26;32.66;99302.51;2173517;81;21682;-80
2021/03/09 13:04:32;;;;;;;23.90;5.80;;;;;;;5.16;33.45;99309.39;2172092;81;21482;-78
2021/03/09 13:07:33;;;;;;;7.00;4.27;;;;;;;5.06;33.70;99303.38;2170799;81;21260;-79
2021/03/09 13:10:35;;;;;;;16.67;5.23;;;;;;;4.94;34.04;99301.17;2170895;81;21133;-80
2021/03/09 13:13:36;;;;;;;9.97;4.70;;;;;;;4.86;34.83;99301.27;2172445;81;21328;-77
2021/03/09 13:16:37;;;;;;;9.50;4.70;;;;;;;4.92;34.84;99296.34;2171716;81;21273;-77
2021/03/09 13:19:38;;;;;;;18.37;5.97;;;;;;;4.94;34.46;99292.12;2173026;82;21318;-77
2021/03/09 13:22:39;;;;;;;8.40;5.27;;;;;;;4.81;34.78;99291.14;2173471;81;23508;-77
2021/03/09 13:25:40;;;;;;;9.97;5.47;;;;;;;4.53;34.34;99289.09;2171892;81;21149;-77
2021/03/09 13:28:42;;;;;;;8.53;4.90;;;;;;;4.15;35.67;99293.88;2163037;81;21266;-80
2021/03/09 13:31:43;;;;;;;15.17;5.30;;;;;;;3.98;36.34;99298.29;2157344;82;21137;-80
2021/03/09 13:34:44;;;;;;;45.53;7.50;;;;;;;3.80;36.01;99299.63;2158771;82;21213;-80
2021/03/09 13:37:45;;;;;;;372.97;27.47;;;;;;;3.62;36.71;99291.05;2158146;82;21447;-79
2021/03/09 13:40:58;;;;;;;9.67;5.40;;;;;;;3.57;37.23;99291.24;2156912;82;21433;-80
2021/03/09 13:44:17;;;;;;;14.30;6.73;;;;;;;3.56;37.12;99293.34;2159895;82;21332;-80
2021/03/09 13:47:18;;;;;;;9.93;5.17;;;;;;;3.55;37.04;99295.45;2159066;82;21135;-79
2021/03/09 13:50:19;;;;;;;137.37;12.17;;;;;;;3.50;37.27;99302.09;2158666;82;21122;-80
2021/03/09 13:53:20;;;;;;;6.80;4.47;;;;;;;3.40;37.43;99288.25;2158368;82;21099;-78
2021/03/09 13:56:21;;;;;;;13.97;4.73;;;;;;;3.42;37.31;99289.20;2156389;82;21754;-78
2021/03/09 13:59:23;;;;;;;14.60;6.73;;;;;;;3.40;37.37;99290.42;2156432;82;21330;-77
2021/03/09 14:02:24;;;;;;;14.63;7.93;;;;;;;3.34;37.67;99289.25;2156347;82;21293;-80
2021/03/09 14:05:25;;;;;;;8.57;5.37;;;;;;;3.31;37.96;99280.08;2155341;82;21506;-78
2021/03/09 14:08:28;;;;;;;75.00;9.73;;;;;;;3.37;37.50;99286.81;2153541;82;21280;-78